createdAt,value
2022-09-20T00:00:41.334Z,11.69
2022-09-20T00:03:15.411Z,11.68
2022-09-20T00:05:48.175Z,11.64
2022-09-20T00:08:20.140Z,11.62
2022-09-20T00:10:53.571Z,11.61
2022-09-20T00:13:25.651Z,11.56
2022-09-20T00:15:57.887Z,11.50
2022-09-20T00:18:30.179Z,11.55
2022-09-20T00:21:02.594Z,11.51
2022-09-20T00:23:36.526Z,11.53
2022-09-20T00:26:08.492Z,11.50
2022-09-20T00:28:41.659Z,11.55
2022-09-20T00:31:14.671Z,11.52
2022-09-20T00:34:05.685Z,11.54
2022-09-20T00:36:37.696Z,11.50
2022-09-20T00:39:12.842Z,11.42
2022-09-20T00:41:45.630Z,11.48
2022-09-20T00:44:58.010Z,11.41
2022-09-20T00:47:43.801Z,11.46
2022-09-20T00:50:43.424Z,11.49
2022-09-20T00:53:26.578Z,11.48
2022-09-20T00:56:09.014Z,11.48
2022-09-20T00:59:06.940Z,11.50
2022-09-20T01:01:39.270Z,11.51
2022-09-20T01:04:14.956Z,11.48
2022-09-20T01:06:48.132Z,11.44
2022-09-20T01:09:20.211Z,11.48
2022-09-20T01:11:55.753Z,11.42
2022-09-20T01:14:27.894Z,11.42
2022-09-20T01:17:04.618Z,11.48
2022-09-20T01:20:18.647Z,11.47
2022-09-20T01:23:02.351Z,11.47
2022-09-20T01:26:08.092Z,11.52
2022-09-20T01:28:42.494Z,11.61
2022-09-20T01:31:36.040Z,11.64
2022-09-20T01:34:48.848Z,11.69
2022-09-20T01:38:31.531Z,11.78
2022-09-20T01:41:18.216Z,11.86
2022-09-20T01:44:11.154Z,11.82
2022-09-20T01:46:44.189Z,11.90
2022-09-20T01:49:51.115Z,11.93
2022-09-20T01:52:56.187Z,12.04
2022-09-20T01:55:44.182Z,12.04
2022-09-20T01:58:24.910Z,12.00
2022-09-20T02:01:58.781Z,11.96
2022-09-20T02:05:11.097Z,11.84
2022-09-20T02:08:01.762Z,11.82
2022-09-20T02:11:12.610Z,11.77
2022-09-20T02:14:29.997Z,11.70
2022-09-20T02:17:41.556Z,11.67
2022-09-20T02:20:27.356Z,11.68
2022-09-20T02:23:29.927Z,11.70
2022-09-20T02:26:28.115Z,11.73
2022-09-20T02:29:15.916Z,11.71
2022-09-20T02:32:29.560Z,11.67
2022-09-20T02:35:30.688Z,11.62
2022-09-20T02:38:49.568Z,11.59
2022-09-20T02:41:42.515Z,11.54
2022-09-20T02:44:39.042Z,11.54
2022-09-20T02:47:36.269Z,11.51
2022-09-20T02:50:41.554Z,11.52
2022-09-20T02:53:35.188Z,11.53
2022-09-20T02:56:46.089Z,11.56
2022-09-20T02:59:39.461Z,11.55
2022-09-20T03:02:57.445Z,11.60
2022-09-20T03:06:49.486Z,11.65
2022-09-20T03:09:42.440Z,11.73
2022-09-20T03:12:33.701Z,11.67
2022-09-20T03:15:17.372Z,11.69
2022-09-20T03:18:08.338Z,11.70
2022-09-20T03:20:59.897Z,11.72
2022-09-20T03:23:50.491Z,11.68
2022-09-20T03:26:45.404Z,11.61
2022-09-20T03:29:47.396Z,11.54
2022-09-20T03:32:44.993Z,11.46
2022-09-20T03:36:30.007Z,11.40
2022-09-20T03:39:48.776Z,11.35
2022-09-20T03:42:27.059Z,11.32
2022-09-20T03:45:30.028Z,11.28
2022-09-20T03:48:37.098Z,11.26
2022-09-20T03:51:36.510Z,11.17
2022-09-20T03:54:48.924Z,11.13
2022-09-20T03:57:47.023Z,11.07
2022-09-20T04:00:37.223Z,11.02
2022-09-20T04:03:41.807Z,11.00
2022-09-20T04:07:13.184Z,10.97
2022-09-20T04:10:19.074Z,10.94
2022-09-20T04:12:53.632Z,10.94
2022-09-20T04:15:37.825Z,10.93
2022-09-20T04:18:58.329Z,10.90
2022-09-20T04:21:38.454Z,10.82
2022-09-20T04:24:28.908Z,10.81
2022-09-20T04:27:20.219Z,10.81
2022-09-20T04:29:58.389Z,10.78
2022-09-20T04:32:44.398Z,10.82
2022-09-20T04:35:58.272Z,10.76
2022-09-20T04:38:31.049Z,10.73
2022-09-20T04:41:31.323Z,10.75
2022-09-20T04:44:38.913Z,10.70
2022-09-20T04:47:35.873Z,10.68
2022-09-20T04:50:31.817Z,10.70
2022-09-20T04:53:40.553Z,10.67
2022-09-20T04:56:22.168Z,10.69
2022-09-20T04:59:08.253Z,10.68
2022-09-20T05:02:03.697Z,10.70
2022-09-20T05:05:01.995Z,10.76
2022-09-20T05:08:22.005Z,10.79
2022-09-20T05:11:42.420Z,10.80
2022-09-20T05:14:51.688Z,10.85
2022-09-20T05:18:01.425Z,10.92
2022-09-20T05:20:49.737Z,10.92
2022-09-20T05:23:57.159Z,10.94
2022-09-20T05:27:09.011Z,11.02
2022-09-20T05:29:51.327Z,11.05
2022-09-20T05:32:34.007Z,11.10
2022-09-20T05:35:29.622Z,11.11
2022-09-20T05:38:14.149Z,11.15
2022-09-20T05:41:35.316Z,11.22
2022-09-20T05:44:31.214Z,11.29
2022-09-20T05:47:19.281Z,11.34
2022-09-20T05:50:55.252Z,11.40
2022-09-20T05:53:42.497Z,11.42
2022-09-20T05:56:55.677Z,11.41
2022-09-20T05:59:47.918Z,11.52
2022-09-20T06:02:38.563Z,11.61
2022-09-20T06:05:35.069Z,11.66
2022-09-20T06:08:24.744Z,11.78
2022-09-20T06:11:20.305Z,11.85
2022-09-20T06:14:15.265Z,11.91
2022-09-20T06:17:18.998Z,11.97
2022-09-20T06:20:00.444Z,11.95
2022-09-20T06:22:47.237Z,11.99
2022-09-20T06:25:24.962Z,11.98
2022-09-20T06:28:13.765Z,12.01
2022-09-20T06:30:53.555Z,12.04
2022-09-20T06:33:28.491Z,12.07
2022-09-20T06:36:50.721Z,12.12
2022-09-20T06:40:10.841Z,12.16
2022-09-20T06:42:44.613Z,12.19
2022-09-20T06:45:16.514Z,12.24
2022-09-20T06:47:48.561Z,12.32
2022-09-20T06:50:20.513Z,12.43
2022-09-20T06:52:53.715Z,12.46
2022-09-20T06:55:31.188Z,12.46
2022-09-20T06:58:03.893Z,12.59
2022-09-20T07:00:36.234Z,12.61
2022-09-20T07:03:08.650Z,12.73
2022-09-20T07:05:40.849Z,12.78
2022-09-20T07:08:13.894Z,12.81
2022-09-20T07:10:45.831Z,12.94
2022-09-20T07:13:19.325Z,13.02
2022-09-20T07:15:51.275Z,13.16
2022-09-20T07:18:23.212Z,13.21
2022-09-20T07:20:58.848Z,13.26
2022-09-20T07:23:31.388Z,13.27
2022-09-20T07:26:03.677Z,13.30
2022-09-20T07:28:35.782Z,13.29
2022-09-20T07:31:07.760Z,13.32
2022-09-20T07:33:39.694Z,13.34
2022-09-20T07:36:12.506Z,13.33
2022-09-20T07:38:50.216Z,13.33
2022-09-20T07:41:24.726Z,13.30
2022-09-20T07:44:16.777Z,13.25
2022-09-20T07:46:59.772Z,13.24
2022-09-20T07:49:31.661Z,13.23
2022-09-20T07:52:04.312Z,13.31
2022-09-20T07:54:36.421Z,13.56
2022-09-20T07:57:08.460Z,14.08
2022-09-20T07:59:40.423Z,14.46
2022-09-20T08:02:16.045Z,14.99
2022-09-20T08:04:50.058Z,15.22
2022-09-20T08:07:22.038Z,15.59
2022-09-20T08:09:54.613Z,15.82
2022-09-20T08:15:21.512Z,15.70
2022-09-20T08:17:53.505Z,15.68
2022-09-20T08:20:25.506Z,15.68
2022-09-20T08:23:22.031Z,15.54
2022-09-20T08:25:51.302Z,15.27
2022-09-20T08:28:23.299Z,15.42
2022-09-20T08:31:07.451Z,15.85
2022-09-20T08:33:42.753Z,16.18
2022-09-20T08:36:21.335Z,16.38
2022-09-20T08:42:14.736Z,16.16
2022-09-20T08:45:00.523Z,16.35
2022-09-20T08:47:50.050Z,16.35
2022-09-20T08:50:22.820Z,16.33
2022-09-20T08:53:00.080Z,16.41
2022-09-20T08:55:37.563Z,16.42
2022-09-20T08:58:12.112Z,16.25
2022-09-20T09:00:47.054Z,16.38
2022-09-20T09:03:19.573Z,16.34
2022-09-20T09:05:58.216Z,16.35
2022-09-20T09:08:38.060Z,16.52
2022-09-20T09:11:16.002Z,16.51
2022-09-20T09:13:55.926Z,16.47
2022-09-20T09:16:35.800Z,16.61
2022-09-20T09:19:33.654Z,16.87
2022-09-20T09:22:06.519Z,16.85
2022-09-20T09:24:38.494Z,16.81
2022-09-20T09:27:19.993Z,16.79
2022-09-20T09:29:55.291Z,16.73
2022-09-20T09:32:33.011Z,16.72
2022-09-20T09:35:26.895Z,16.69
2022-09-20T09:38:02.728Z,16.58
2022-09-20T09:40:35.070Z,16.59
2022-09-20T09:43:20.354Z,16.42
2022-09-20T09:45:52.425Z,16.29
2022-09-20T09:48:28.125Z,16.23
2022-09-20T09:51:19.512Z,15.96
2022-09-20T09:53:51.805Z,15.72
2022-09-20T09:56:59.800Z,15.58
2022-09-20T09:59:50.228Z,15.37
2022-09-20T10:02:50.237Z,14.93
2022-09-20T10:05:41.248Z,14.09
2022-09-20T10:08:35.485Z,13.62
2022-09-20T10:11:49.166Z,13.32
2022-09-20T10:14:46.261Z,13.16
2022-09-20T10:18:17.326Z,12.95
2022-09-20T10:21:33.269Z,12.99
2022-09-20T10:24:37.010Z,12.89
2022-09-20T10:27:33.807Z,12.96
2022-09-20T10:30:23.975Z,12.98
2022-09-20T10:33:02.904Z,13.09
2022-09-20T10:36:01.954Z,13.29
2022-09-20T10:38:48.962Z,13.52
2022-09-20T10:42:01.449Z,13.99
2022-09-20T10:45:24.411Z,15.29
2022-09-20T10:48:13.827Z,19.11
2022-09-20T10:51:10.393Z,20.87
2022-09-20T10:54:14.221Z,23.28
2022-09-20T10:56:56.398Z,24.66
2022-09-20T11:00:22.352Z,25.97
2022-09-20T11:03:50.463Z,25.82
2022-09-20T11:07:15.925Z,23.35
2022-09-20T11:09:58.554Z,21.73
2022-09-20T11:12:50.980Z,20.51
2022-09-20T11:15:59.739Z,20.17
2022-09-20T11:18:48.475Z,20.20
2022-09-20T11:21:39.092Z,20.03
2022-09-20T11:24:51.628Z,19.42
2022-09-20T11:27:56.285Z,18.47
2022-09-20T11:30:51.718Z,17.82
2022-09-20T11:33:41.333Z,17.51
2022-09-20T11:36:26.210Z,17.17
2022-09-20T11:39:12.220Z,17.07
2022-09-20T11:41:44.962Z,17.13
2022-09-20T11:44:20.181Z,17.11
2022-09-20T11:47:05.245Z,17.14
2022-09-20T11:50:53.269Z,17.02
2022-09-20T11:53:48.566Z,17.32
2022-09-20T11:56:29.194Z,17.68
2022-09-20T11:59:05.789Z,17.92
2022-09-20T12:01:43.669Z,18.94
2022-09-20T12:04:32.347Z,20.14
2022-09-20T12:07:25.857Z,20.68
2022-09-20T12:10:20.846Z,20.72
2022-09-20T12:13:18.452Z,20.41
2022-09-20T12:16:09.906Z,19.79
2022-09-20T12:18:56.758Z,19.44
2022-09-20T12:21:28.816Z,19.27
2022-09-20T12:24:15.501Z,19.37
2022-09-20T12:26:48.602Z,19.81
2022-09-20T12:29:23.680Z,20.18
2022-09-20T12:31:58.486Z,20.29
2022-09-20T12:34:36.935Z,20.41
2022-09-20T12:37:10.365Z,20.96
2022-09-20T12:39:55.671Z,21.08
2022-09-20T12:42:32.334Z,21.44
2022-09-20T12:45:17.093Z,20.62
2022-09-20T12:47:55.082Z,20.16
2022-09-20T12:50:46.838Z,19.61
2022-09-20T12:53:18.865Z,19.10
2022-09-20T12:56:06.761Z,19.31
2022-09-20T12:58:53.302Z,19.44
2022-09-20T13:01:25.235Z,19.29
2022-09-20T13:04:40.407Z,19.06
2022-09-20T13:07:43.389Z,19.02
2022-09-20T13:10:27.560Z,18.85
2022-09-20T13:13:14.188Z,18.92
2022-09-20T13:15:53.560Z,18.78
2022-09-20T13:18:27.892Z,18.41
2022-09-20T13:21:06.475Z,18.22
2022-09-20T13:23:51.525Z,17.85
2022-09-20T13:26:33.548Z,17.61
2022-09-20T13:29:09.794Z,17.37
2022-09-20T13:31:41.696Z,17.14
2022-09-20T13:34:25.977Z,17.08
2022-09-20T13:36:59.503Z,17.18
2022-09-20T13:39:36.299Z,17.19
2022-09-20T13:42:19.392Z,17.40
2022-09-20T13:44:51.952Z,17.64
2022-09-20T13:47:26.483Z,17.96
2022-09-20T13:50:35.188Z,18.14
2022-09-20T13:53:39.328Z,17.93
2022-09-20T13:56:26.190Z,17.91
2022-09-20T13:59:05.288Z,17.69
2022-09-20T14:01:48.347Z,17.69
2022-09-20T14:04:26.365Z,17.44
2022-09-20T14:06:59.892Z,17.41
2022-09-20T14:09:35.873Z,17.62
2022-09-20T14:12:11.669Z,17.70
2022-09-20T14:14:44.250Z,17.78
2022-09-20T14:17:19.398Z,17.63
2022-09-20T14:19:57.747Z,17.88
2022-09-20T14:22:29.938Z,17.80
2022-09-20T14:25:23.169Z,17.69
2022-09-20T14:28:19.992Z,17.56
2022-09-20T14:30:52.135Z,17.64
2022-09-20T14:33:24.553Z,17.59
2022-09-20T14:35:56.466Z,17.49
2022-09-20T14:38:28.683Z,17.14
2022-09-20T14:41:00.801Z,17.08
2022-09-20T14:43:35.782Z,17.12
2022-09-20T14:46:16.798Z,16.96
2022-09-20T14:48:49.049Z,16.94
2022-09-20T14:51:25.603Z,16.88
2022-09-20T14:54:25.557Z,17.02
2022-09-20T14:56:58.993Z,17.17
2022-09-20T14:59:43.124Z,17.01
2022-09-20T15:02:16.196Z,17.03
2022-09-20T15:04:59.487Z,16.93
2022-09-20T15:07:31.590Z,16.85
2022-09-20T15:10:05.148Z,16.85
2022-09-20T15:12:37.052Z,16.77
2022-09-20T15:15:17.787Z,16.65
2022-09-20T15:17:49.710Z,16.64
2022-09-20T15:20:24.592Z,16.60
2022-09-20T15:22:58.051Z,16.58
2022-09-20T15:25:30.181Z,16.45
2022-09-20T15:28:02.384Z,16.27
2022-09-20T15:30:34.385Z,16.06
2022-09-20T15:33:06.335Z,16.07
2022-09-20T15:35:40.377Z,16.02
2022-09-20T15:38:14.077Z,15.98
2022-09-20T15:40:49.142Z,15.91
2022-09-20T15:43:26.322Z,15.88
2022-09-20T15:46:01.999Z,15.85
2022-09-20T15:48:34.008Z,15.87
2022-09-20T15:51:08.662Z,15.90
2022-09-20T15:53:48.729Z,15.75
2022-09-20T15:56:24.008Z,15.76
2022-09-20T15:59:05.409Z,15.78
2022-09-20T16:01:43.850Z,15.72
2022-09-20T16:04:21.383Z,15.67
2022-09-20T16:06:54.196Z,15.67
2022-09-20T16:09:26.105Z,15.72
2022-09-20T16:12:00.366Z,15.75
2022-09-20T16:14:32.342Z,15.71
2022-09-20T16:17:04.537Z,15.65
2022-09-20T16:19:38.429Z,15.64
2022-09-20T16:22:12.620Z,15.60
2022-09-20T16:24:44.809Z,15.53
2022-09-20T16:27:18.493Z,15.55
2022-09-20T16:29:50.498Z,15.48
2022-09-20T16:32:22.436Z,15.48
2022-09-20T16:34:55.028Z,15.47
2022-09-20T16:37:32.858Z,15.35
2022-09-20T16:40:05.385Z,15.31
2022-09-20T16:42:38.176Z,15.31
2022-09-20T16:45:10.457Z,15.31
2022-09-20T16:47:42.444Z,15.22
2022-09-20T16:50:14.861Z,15.24
2022-09-20T16:52:47.300Z,15.24
2022-09-20T16:55:20.759Z,15.20
2022-09-20T16:57:52.754Z,15.14
2022-09-20T17:00:25.035Z,15.11
2022-09-20T17:02:56.977Z,15.05
2022-09-20T17:05:29.516Z,14.99
2022-09-20T17:08:01.775Z,14.92
2022-09-20T17:10:33.674Z,14.85
2022-09-20T17:13:07.565Z,14.76
2022-09-20T17:15:39.955Z,14.67
2022-09-20T17:18:15.456Z,14.60
2022-09-20T17:20:49.388Z,14.52
2022-09-20T17:23:21.400Z,14.48
2022-09-20T17:26:06.937Z,14.45
2022-09-20T17:28:44.240Z,14.38
2022-09-20T17:31:19.447Z,14.29
2022-09-20T17:33:52.220Z,14.23
2022-09-20T17:36:24.709Z,14.17
2022-09-20T17:39:03.838Z,14.08
2022-09-20T17:41:37.510Z,14.03
2022-09-20T17:44:10.424Z,13.99
2022-09-20T17:46:45.875Z,14.01
2022-09-20T17:49:20.611Z,14.01
2022-09-20T17:51:54.972Z,13.97
2022-09-20T17:54:26.898Z,13.89
2022-09-20T17:56:58.799Z,13.86
2022-09-20T17:59:30.966Z,13.81
2022-09-20T18:02:02.937Z,13.76
2022-09-20T18:04:35.059Z,13.73
2022-09-20T18:07:07.197Z,13.67
2022-09-20T18:09:39.166Z,13.60
2022-09-20T18:12:16.665Z,13.55
2022-09-20T18:14:50.261Z,13.51
2022-09-20T18:17:22.152Z,13.46
2022-09-20T18:19:54.133Z,13.46
2022-09-20T18:22:26.060Z,13.40
2022-09-20T18:24:57.995Z,13.36
2022-09-20T18:27:30.735Z,13.32
2022-09-20T18:30:02.856Z,13.32
2022-09-20T18:32:34.858Z,13.31
2022-09-20T18:35:07.234Z,13.31
2022-09-20T18:37:39.267Z,13.26
2022-09-20T18:40:11.453Z,13.23
2022-09-20T18:42:43.540Z,13.19
2022-09-20T18:45:17.631Z,13.14
2022-09-20T18:47:50.419Z,13.10
2022-09-20T18:50:24.569Z,13.08
2022-09-20T18:52:59.112Z,13.01
2022-09-20T18:55:31.468Z,12.95
2022-09-20T18:58:03.661Z,12.95
2022-09-20T19:00:36.010Z,12.92
2022-09-20T19:03:44.925Z,12.89
2022-09-20T19:06:20.360Z,12.89
2022-09-20T19:09:08.587Z,12.88
2022-09-20T19:11:48.924Z,12.88
2022-09-20T19:14:52.690Z,12.83
2022-09-20T19:17:40.407Z,12.83
2022-09-20T19:20:32.703Z,12.85
2022-09-20T19:23:19.318Z,12.84
2022-09-20T19:26:22.150Z,12.78
2022-09-20T19:28:58.022Z,12.80
2022-09-20T19:31:32.958Z,12.78
2022-09-20T19:34:16.764Z,12.72
2022-09-20T19:36:58.255Z,12.69
2022-09-20T19:40:19.015Z,12.61
2022-09-20T19:43:04.890Z,12.56
2022-09-20T19:45:48.870Z,12.50
2022-09-20T19:48:24.549Z,12.51
2022-09-20T19:50:57.811Z,12.52
2022-09-20T19:53:30.320Z,12.53
2022-09-20T19:56:26.240Z,12.51
2022-09-20T19:58:58.565Z,12.49
2022-09-20T20:01:31.379Z,12.47
2022-09-20T20:04:03.895Z,12.44
2022-09-20T20:07:07.728Z,12.40
2022-09-20T20:10:05.931Z,12.34
2022-09-20T20:12:55.651Z,12.29
2022-09-20T20:15:42.868Z,12.25
2022-09-20T20:18:34.379Z,12.19
2022-09-20T20:21:34.266Z,12.16
2022-09-20T20:24:21.859Z,12.14
2022-09-20T20:26:53.879Z,12.06
2022-09-20T20:29:25.883Z,12.02
2022-09-20T20:31:57.791Z,11.99
2022-09-20T20:34:30.278Z,11.94
2022-09-20T20:37:02.208Z,11.92
2022-09-20T20:39:34.402Z,11.89
2022-09-20T20:42:06.744Z,11.89
2022-09-20T20:44:38.852Z,11.86
2022-09-20T20:47:11.469Z,11.84
2022-09-20T20:49:43.625Z,11.80
2022-09-20T20:52:15.538Z,11.77
2022-09-20T20:54:48.432Z,11.72
2022-09-20T20:57:20.576Z,11.70
2022-09-20T20:59:53.132Z,11.68
2022-09-20T21:02:25.196Z,11.63
2022-09-20T21:04:57.306Z,11.61
2022-09-20T21:07:29.308Z,11.59
2022-09-20T21:10:01.851Z,11.58
2022-09-20T21:12:33.774Z,11.56
2022-09-20T21:15:06.604Z,11.53
2022-09-20T21:17:38.528Z,11.52
2022-09-20T21:20:10.708Z,11.50
2022-09-20T21:22:42.623Z,11.48
2022-09-20T21:25:14.591Z,11.43
2022-09-20T21:27:46.589Z,11.40
2022-09-20T21:30:18.612Z,11.38
2022-09-20T21:32:55.807Z,11.37
2022-09-20T21:35:27.869Z,11.35
2022-09-20T21:37:59.905Z,11.35
2022-09-20T21:40:31.959Z,11.35
2022-09-20T21:43:04.108Z,11.32
2022-09-20T21:45:40.429Z,11.26
2022-09-20T21:48:12.420Z,11.23
2022-09-20T21:50:44.392Z,11.19
2022-09-20T21:53:18.151Z,11.18
2022-09-20T21:55:56.092Z,11.15
2022-09-20T21:58:28.554Z,11.14
2022-09-20T22:01:11.817Z,11.13
2022-09-20T22:03:46.863Z,11.10
2022-09-20T22:06:28.154Z,11.09
2022-09-20T22:09:03.832Z,11.08
2022-09-20T22:11:39.356Z,11.07
2022-09-20T22:14:13.120Z,11.05
2022-09-20T22:16:47.336Z,11.04
2022-09-20T22:19:20.422Z,11.04
2022-09-20T22:21:52.473Z,11.01
2022-09-20T22:24:24.957Z,10.99
2022-09-20T22:26:56.953Z,10.95
2022-09-20T22:29:28.988Z,10.92
2022-09-20T22:32:01.068Z,10.91
2022-09-20T22:34:32.985Z,10.88
2022-09-20T22:37:04.918Z,10.87
2022-09-20T22:39:36.848Z,10.86
2022-09-20T22:42:08.832Z,10.87
2022-09-20T22:44:40.822Z,10.85
2022-09-20T22:47:12.793Z,10.83
2022-09-20T22:49:44.814Z,10.80
2022-09-20T22:52:17.006Z,10.77
2022-09-20T22:54:48.915Z,10.78
2022-09-20T22:57:20.921Z,10.75
2022-09-20T22:59:52.913Z,10.76
2022-09-20T23:02:25.028Z,10.76
2022-09-20T23:04:56.969Z,10.76
2022-09-20T23:07:28.903Z,10.74
2022-09-20T23:10:00.843Z,10.72
2022-09-20T23:12:32.981Z,10.72
2022-09-20T23:15:07.057Z,10.69
2022-09-20T23:17:42.061Z,10.67
2022-09-20T23:20:14.472Z,10.65
2022-09-20T23:22:46.399Z,10.63
2022-09-20T23:25:18.332Z,10.60
2022-09-20T23:27:50.278Z,10.61
2022-09-20T23:30:22.238Z,10.61
2022-09-20T23:32:54.589Z,10.58
2022-09-20T23:35:28.817Z,10.59
2022-09-20T23:38:01.044Z,10.60
2022-09-20T23:40:34.065Z,10.60
2022-09-20T23:43:06.194Z,10.55
2022-09-20T23:45:40.236Z,10.56
2022-09-20T23:48:12.293Z,10.48
2022-09-20T23:50:44.468Z,10.52
2022-09-20T23:53:16.605Z,10.57
2022-09-20T23:55:48.532Z,10.58
2022-09-20T23:58:21.096Z,10.58
